createdAt,value
2022-09-25T00:01:37.695Z,75.81
2022-09-25T00:04:06.807Z,75.83
2022-09-25T00:06:35.417Z,75.71
2022-09-25T00:09:06.813Z,75.93
2022-09-25T00:11:40.180Z,75.91
2022-09-25T00:14:08.760Z,75.95
2022-09-25T00:16:37.419Z,75.78
2022-09-25T00:19:16.125Z,75.78
2022-09-25T00:21:45.405Z,75.91
2022-09-25T00:24:15.285Z,75.92
2022-09-25T00:26:46.277Z,76.14
2022-09-25T00:29:18.219Z,76.00
2022-09-25T00:31:46.989Z,76.00
2022-09-25T00:34:15.505Z,75.83
2022-09-25T00:36:44.110Z,76.04
2022-09-25T00:39:14.275Z,75.83
2022-09-25T00:41:44.494Z,75.92
2022-09-25T00:44:33.935Z,76.01
2022-09-25T00:47:03.943Z,75.96
2022-09-25T00:49:32.633Z,75.95
2022-09-25T00:52:07.537Z,75.82
2022-09-25T00:54:40.113Z,76.16
2022-09-25T00:57:15.224Z,75.89
2022-09-25T00:59:49.304Z,76.02
2022-09-25T01:02:25.760Z,75.99
2022-09-25T01:04:56.736Z,76.09
2022-09-25T01:07:25.514Z,76.12
2022-09-25T01:09:59.557Z,76.38
2022-09-25T01:12:30.269Z,76.38
2022-09-25T01:14:58.978Z,76.11
2022-09-25T01:17:35.735Z,76.40
2022-09-25T01:20:17.939Z,76.29
2022-09-25T01:23:00.060Z,76.29
2022-09-25T01:25:41.028Z,76.61
2022-09-25T01:28:30.947Z,76.63
2022-09-25T01:31:12.960Z,76.58
2022-09-25T01:33:48.118Z,76.96
2022-09-25T01:36:23.531Z,76.79
2022-09-25T01:38:57.289Z,76.45
2022-09-25T01:41:32.536Z,76.54
2022-09-25T01:44:05.232Z,76.52
2022-09-25T01:46:41.908Z,76.51
2022-09-25T01:49:18.458Z,76.20
2022-09-25T01:51:52.539Z,76.12
2022-09-25T01:54:25.751Z,76.26
2022-09-25T01:56:59.330Z,76.14
2022-09-25T01:59:36.155Z,76.10
2022-09-25T02:02:14.244Z,76.11
2022-09-25T02:04:47.907Z,76.08
2022-09-25T02:07:22.353Z,75.98
2022-09-25T02:09:55.537Z,75.94
2022-09-25T02:12:27.225Z,75.91
2022-09-25T02:15:01.970Z,76.16
2022-09-25T02:17:49.229Z,76.25
2022-09-25T02:20:28.117Z,76.38
2022-09-25T02:23:01.064Z,76.18
2022-09-25T02:25:37.898Z,76.32
2022-09-25T02:28:06.522Z,76.37
2022-09-25T02:30:35.329Z,76.23
2022-09-25T02:33:05.696Z,76.42
2022-09-25T02:35:34.769Z,76.57
2022-09-25T02:38:04.897Z,76.79
2022-09-25T02:40:43.910Z,76.81
2022-09-25T02:43:24.799Z,76.59
2022-09-25T02:46:05.116Z,76.76
2022-09-25T02:48:45.199Z,76.83
2022-09-25T02:51:21.228Z,76.82
2022-09-25T02:53:57.387Z,76.74
2022-09-25T02:56:31.705Z,76.70
2022-09-25T02:59:07.920Z,76.82
2022-09-25T03:01:41.724Z,76.74
2022-09-25T03:04:13.488Z,76.83
2022-09-25T03:06:43.859Z,76.76
2022-09-25T03:09:15.228Z,76.78
2022-09-25T03:11:44.575Z,76.68
2022-09-25T03:14:13.141Z,76.69
2022-09-25T03:16:47.823Z,76.78
2022-09-25T03:19:19.905Z,76.72
2022-09-25T03:21:49.495Z,76.94
2022-09-25T03:24:19.917Z,76.67
2022-09-25T03:26:48.607Z,76.72
2022-09-25T03:29:18.071Z,76.83
2022-09-25T03:31:46.759Z,76.71
2022-09-25T03:34:19.669Z,76.81
2022-09-25T03:36:48.787Z,76.99
2022-09-25T03:39:19.340Z,77.04
2022-09-25T03:41:49.189Z,77.06
2022-09-25T03:44:17.717Z,77.10
2022-09-25T03:46:46.417Z,77.28
2022-09-25T03:49:15.017Z,77.15
2022-09-25T03:51:45.035Z,77.25
2022-09-25T03:54:13.691Z,77.30
2022-09-25T03:56:42.839Z,77.31
2022-09-25T03:59:11.698Z,77.53
2022-09-25T04:01:40.762Z,77.35
2022-09-25T04:04:09.616Z,77.56
2022-09-25T04:06:38.267Z,77.44
2022-09-25T04:09:08.778Z,77.44
2022-09-25T04:11:38.349Z,77.42
2022-09-25T04:14:07.408Z,77.33
2022-09-25T04:16:36.874Z,77.17
2022-09-25T04:19:05.597Z,77.22
2022-09-25T04:21:34.101Z,77.37
2022-09-25T04:24:12.950Z,77.45
2022-09-25T04:26:43.034Z,77.19
2022-09-25T04:29:11.760Z,77.26
2022-09-25T04:31:40.638Z,77.41
2022-09-25T04:34:08.258Z,77.43
2022-09-25T04:36:36.822Z,77.55
2022-09-25T04:39:05.700Z,77.44
2022-09-25T04:41:35.267Z,77.54
2022-09-25T04:44:07.507Z,77.35
2022-09-25T04:46:36.258Z,77.32
2022-09-25T04:49:04.941Z,77.48
2022-09-25T04:51:33.851Z,77.15
2022-09-25T04:54:02.409Z,77.28
2022-09-25T04:56:31.058Z,77.52
2022-09-25T04:58:59.697Z,77.69
2022-09-25T05:01:29.940Z,77.78
2022-09-25T05:03:58.810Z,77.78
2022-09-25T05:06:27.718Z,77.82
2022-09-25T05:08:57.389Z,77.88
2022-09-25T05:11:25.944Z,77.88
2022-09-25T05:13:54.555Z,77.77
2022-09-25T05:16:23.117Z,77.54
2022-09-25T05:18:53.346Z,77.47
2022-09-25T05:21:22.274Z,77.56
2022-09-25T05:23:50.789Z,77.49
2022-09-25T05:26:19.482Z,77.75
2022-09-25T05:28:51.702Z,77.53
2022-09-25T05:31:20.604Z,77.79
2022-09-25T05:33:49.327Z,77.66
2022-09-25T05:36:20.255Z,77.81
2022-09-25T05:38:49.116Z,77.59
2022-09-25T05:41:17.886Z,77.57
2022-09-25T05:43:48.110Z,77.78
2022-09-25T05:46:17.009Z,78.01
2022-09-25T05:48:45.618Z,78.07
2022-09-25T05:51:14.264Z,77.66
2022-09-25T05:53:44.273Z,77.32
2022-09-25T05:56:12.899Z,77.14
2022-09-25T05:58:41.479Z,76.83
2022-09-25T06:01:10.642Z,76.86
2022-09-25T06:03:39.267Z,76.36
2022-09-25T06:06:08.219Z,76.37
2022-09-25T06:08:36.939Z,75.95
2022-09-25T06:11:08.034Z,75.54
2022-09-25T06:13:38.415Z,75.54
2022-09-25T06:16:14.851Z,75.66
2022-09-25T06:18:43.457Z,75.64
2022-09-25T06:21:12.049Z,75.56
2022-09-25T06:23:40.765Z,75.47
2022-09-25T06:26:10.949Z,75.55
2022-09-25T06:28:39.788Z,75.88
2022-09-25T06:31:08.414Z,75.59
2022-09-25T06:33:37.069Z,75.03
2022-09-25T06:36:07.518Z,75.16
2022-09-25T06:38:37.517Z,75.21
2022-09-25T06:41:06.787Z,75.25
2022-09-25T06:43:37.068Z,74.75
2022-09-25T06:46:06.051Z,74.88
2022-09-25T06:48:34.745Z,74.58
2022-09-25T06:51:03.387Z,74.93
2022-09-25T06:53:31.946Z,75.02
2022-09-25T06:56:01.107Z,74.53
2022-09-25T06:58:31.838Z,74.65
2022-09-25T07:01:05.123Z,74.75
2022-09-25T07:03:46.580Z,74.34
2022-09-25T07:06:17.077Z,74.47
2022-09-25T07:08:45.959Z,74.22
2022-09-25T07:11:16.907Z,74.14
2022-09-25T07:13:45.625Z,73.70
2022-09-25T07:16:17.902Z,73.09
2022-09-25T07:18:47.539Z,73.24
2022-09-25T07:21:18.749Z,72.84
2022-09-25T07:23:50.209Z,72.12
2022-09-25T07:26:22.758Z,72.50
2022-09-25T07:28:56.457Z,72.07
2022-09-25T07:31:28.972Z,71.50
2022-09-25T07:33:59.240Z,71.26
2022-09-25T07:36:27.895Z,70.59
2022-09-25T07:38:56.825Z,69.56
2022-09-25T07:41:25.476Z,68.88
2022-09-25T07:44:17.667Z,68.40
2022-09-25T07:46:46.956Z,68.72
2022-09-25T07:49:15.839Z,67.63
2022-09-25T07:51:44.390Z,67.20
2022-09-25T07:54:13.433Z,67.24
2022-09-25T07:56:42.193Z,66.77
2022-09-25T07:59:11.000Z,67.12
2022-09-25T08:01:44.144Z,66.48
2022-09-25T08:04:16.549Z,66.59
2022-09-25T08:06:45.230Z,66.63
2022-09-25T08:09:13.956Z,66.12
2022-09-25T08:11:43.186Z,66.32
2022-09-25T08:14:14.521Z,66.84
2022-09-25T08:16:44.098Z,66.93
2022-09-25T08:19:14.178Z,66.49
2022-09-25T08:21:44.408Z,66.58
2022-09-25T08:24:13.423Z,66.48
2022-09-25T08:26:42.225Z,66.03
2022-09-25T08:29:11.353Z,65.86
2022-09-25T08:31:40.055Z,65.95
2022-09-25T08:34:38.980Z,65.77
2022-09-25T08:37:00.940Z,65.31
2022-09-25T08:39:29.580Z,65.49
2022-09-25T08:41:58.747Z,65.55
2022-09-25T08:44:32.333Z,64.77
2022-09-25T08:47:19.512Z,64.51
2022-09-25T08:50:03.957Z,63.95
2022-09-25T08:52:35.663Z,63.91
2022-09-25T08:55:04.569Z,63.92
2022-09-25T08:57:37.569Z,64.54
2022-09-25T09:00:10.979Z,64.47
2022-09-25T09:02:42.713Z,64.47
2022-09-25T09:05:21.794Z,64.27
2022-09-25T09:07:57.574Z,64.20
2022-09-25T09:10:35.765Z,64.11
2022-09-25T09:13:14.842Z,64.57
2022-09-25T09:15:49.069Z,64.64
2022-09-25T09:18:27.114Z,64.46
2022-09-25T09:20:58.256Z,64.55
2022-09-25T09:23:34.761Z,64.64
2022-09-25T09:26:05.846Z,64.74
2022-09-25T09:28:58.271Z,64.83
2022-09-25T09:31:31.733Z,65.00
2022-09-25T09:34:12.901Z,64.74
2022-09-25T09:36:50.050Z,65.00
2022-09-25T09:39:27.613Z,65.13
2022-09-25T09:42:09.468Z,65.06
2022-09-25T09:44:51.504Z,65.14
2022-09-25T09:47:40.794Z,64.87
2022-09-25T09:50:25.224Z,65.30
2022-09-25T09:53:01.627Z,65.50
2022-09-25T09:55:40.502Z,65.86
2022-09-25T09:58:19.344Z,65.89
2022-09-25T10:00:49.923Z,65.99
2022-09-25T10:03:24.082Z,66.30
2022-09-25T10:05:58.429Z,66.93
2022-09-25T10:08:27.307Z,66.74
2022-09-25T10:10:59.611Z,67.34
2022-09-25T10:13:34.636Z,67.04
2022-09-25T10:16:11.883Z,67.42
2022-09-25T10:18:45.217Z,67.38
2022-09-25T10:21:17.499Z,67.39
2022-09-25T10:23:50.995Z,67.35
2022-09-25T10:26:30.072Z,67.13
2022-09-25T10:29:00.692Z,67.24
2022-09-25T10:31:31.857Z,67.41
2022-09-25T10:34:04.182Z,67.21
2022-09-25T10:36:37.623Z,66.98
2022-09-25T10:39:43.128Z,67.16
2022-09-25T10:42:37.433Z,66.96
2022-09-25T10:45:18.105Z,66.61
2022-09-25T10:48:01.876Z,66.74
2022-09-25T10:50:30.717Z,66.41
2022-09-25T10:53:00.257Z,66.60
2022-09-25T10:55:32.247Z,66.30
2022-09-25T10:58:10.734Z,66.61
2022-09-25T11:00:46.235Z,66.03
2022-09-25T11:03:21.568Z,66.31
2022-09-25T11:05:54.697Z,66.20
2022-09-25T11:08:26.709Z,66.32
2022-09-25T11:10:57.719Z,66.26
2022-09-25T11:13:32.317Z,66.18
2022-09-25T11:16:03.539Z,65.68
2022-09-25T11:18:45.539Z,65.78
2022-09-25T11:21:25.288Z,65.94
2022-09-25T11:24:12.637Z,65.87
2022-09-25T11:26:49.449Z,66.42
2022-09-25T11:29:25.658Z,66.09
2022-09-25T11:32:00.346Z,66.17
2022-09-25T11:34:51.390Z,66.36
2022-09-25T11:37:25.763Z,66.50
2022-09-25T11:40:13.471Z,66.61
2022-09-25T11:42:47.132Z,66.59
2022-09-25T11:45:23.637Z,66.77
2022-09-25T11:47:58.458Z,66.79
2022-09-25T11:50:38.482Z,67.00
2022-09-25T11:53:19.585Z,67.36
2022-09-25T11:56:09.409Z,67.45
2022-09-25T11:58:51.308Z,67.70
2022-09-25T12:01:33.014Z,67.71
2022-09-25T12:04:24.591Z,67.51
2022-09-25T12:07:10.311Z,67.88
2022-09-25T12:10:05.060Z,68.03
2022-09-25T12:12:41.839Z,68.29
2022-09-25T12:15:21.680Z,68.18
2022-09-25T12:18:00.187Z,68.07
2022-09-25T12:20:39.577Z,68.56
2022-09-25T12:23:19.112Z,68.72
2022-09-25T12:26:02.170Z,68.45
2022-09-25T12:28:41.962Z,68.87
2022-09-25T12:31:16.186Z,68.30
2022-09-25T12:33:57.297Z,68.57
2022-09-25T12:36:35.775Z,68.70
2022-09-25T12:39:13.228Z,69.05
2022-09-25T12:41:49.288Z,68.59
2022-09-25T12:44:27.591Z,68.85
2022-09-25T12:47:02.777Z,69.00
2022-09-25T12:49:38.944Z,69.06
2022-09-25T12:52:14.017Z,69.02
2022-09-25T12:54:51.133Z,69.42
2022-09-25T12:57:28.347Z,69.55
2022-09-25T13:00:03.554Z,69.63
2022-09-25T13:02:42.838Z,69.68
2022-09-25T13:05:21.975Z,69.64
2022-09-25T13:07:57.715Z,69.53
2022-09-25T13:10:32.377Z,69.28
2022-09-25T13:13:05.587Z,69.95
2022-09-25T13:15:40.126Z,69.96
2022-09-25T13:18:19.572Z,70.39
2022-09-25T13:20:53.095Z,70.93
2022-09-25T13:23:32.168Z,71.30
2022-09-25T13:26:10.337Z,71.69
2022-09-25T13:28:42.669Z,72.05
2022-09-25T13:31:13.706Z,72.96
2022-09-25T13:33:51.888Z,73.57
2022-09-25T13:36:38.621Z,74.34
2022-09-25T13:39:27.614Z,75.30
2022-09-25T13:42:00.825Z,76.15
2022-09-25T13:44:52.987Z,77.13
2022-09-25T13:47:53.275Z,77.84
2022-09-25T13:50:44.016Z,78.72
2022-09-25T13:53:27.326Z,79.14
2022-09-25T13:56:14.876Z,79.58
2022-09-25T13:59:07.934Z,79.67
2022-09-25T14:01:39.789Z,80.26
2022-09-25T14:04:18.378Z,80.45
2022-09-25T14:06:51.548Z,80.56
2022-09-25T14:09:25.409Z,81.14
2022-09-25T14:12:12.936Z,81.44
2022-09-25T14:14:52.927Z,81.48
2022-09-25T14:17:23.493Z,82.11
2022-09-25T14:19:56.235Z,82.38
2022-09-25T14:22:39.485Z,82.23
2022-09-25T14:25:28.833Z,82.71
2022-09-25T14:27:57.509Z,82.68
2022-09-25T14:30:30.418Z,82.65
2022-09-25T14:33:18.837Z,82.73
2022-09-25T14:35:57.857Z,83.53
2022-09-25T14:38:51.049Z,83.57
2022-09-25T14:41:53.296Z,83.41
2022-09-25T14:44:43.172Z,83.50
2022-09-25T14:47:13.238Z,83.28
2022-09-25T14:49:46.428Z,83.82
2022-09-25T14:52:21.947Z,83.80
2022-09-25T14:54:52.239Z,83.96
2022-09-25T14:57:27.179Z,83.78
2022-09-25T14:59:59.270Z,83.86
2022-09-25T15:02:32.645Z,83.90
2022-09-25T15:05:17.880Z,84.27
2022-09-25T15:07:47.896Z,84.46
2022-09-25T15:10:29.876Z,84.60
2022-09-25T15:13:09.951Z,84.41
2022-09-25T15:15:40.559Z,84.52
2022-09-25T15:18:14.221Z,84.88
2022-09-25T15:20:49.798Z,84.57
2022-09-25T15:23:22.727Z,84.51
2022-09-25T15:25:54.361Z,84.91
2022-09-25T15:28:27.476Z,85.33
2022-09-25T15:30:58.453Z,85.15
2022-09-25T15:33:29.388Z,85.57
2022-09-25T15:35:59.618Z,85.43
2022-09-25T15:38:34.180Z,85.16
2022-09-25T15:41:04.303Z,85.68
2022-09-25T15:43:34.794Z,85.36
2022-09-25T15:46:37.330Z,85.19
2022-09-25T15:49:07.907Z,85.10
2022-09-25T15:51:38.637Z,85.67
2022-09-25T15:54:28.641Z,85.66
2022-09-25T15:56:59.905Z,85.75
2022-09-25T15:59:33.371Z,85.60
2022-09-25T16:02:22.122Z,86.23
2022-09-25T16:04:53.416Z,86.00
2022-09-25T16:07:25.199Z,86.17
2022-09-25T16:09:59.081Z,85.88
2022-09-25T16:12:36.287Z,86.35
2022-09-25T16:15:43.912Z,86.24
2022-09-25T16:18:32.435Z,86.28
2022-09-25T16:21:22.666Z,85.99
2022-09-25T16:23:58.341Z,86.65
2022-09-25T16:26:33.467Z,86.56
2022-09-25T16:29:10.240Z,86.81
2022-09-25T16:31:42.953Z,86.48
2022-09-25T16:34:24.885Z,86.45
2022-09-25T16:36:55.943Z,86.63
2022-09-25T16:39:28.405Z,86.39
2022-09-25T16:42:00.288Z,86.41
2022-09-25T16:44:47.689Z,86.59
2022-09-25T16:47:21.759Z,86.70
2022-09-25T16:49:53.013Z,86.66
2022-09-25T16:52:24.885Z,87.11
2022-09-25T16:54:55.308Z,87.20
2022-09-25T16:57:28.107Z,86.90
2022-09-25T16:59:57.382Z,86.63
2022-09-25T17:02:33.588Z,87.15
2022-09-25T17:05:08.274Z,87.23
2022-09-25T17:07:36.858Z,86.99
2022-09-25T17:10:06.367Z,87.15
2022-09-25T17:12:35.093Z,86.91
2022-09-25T17:15:03.694Z,86.70
2022-09-25T17:17:33.977Z,86.69
2022-09-25T17:20:03.541Z,87.22
2022-09-25T17:22:35.271Z,86.95
2022-09-25T17:25:17.807Z,86.81
2022-09-25T17:27:46.902Z,86.99
2022-09-25T17:30:16.066Z,87.18
2022-09-25T17:32:47.229Z,86.91
2022-09-25T17:35:41.483Z,86.85
2022-09-25T17:38:12.998Z,86.93
2022-09-25T17:40:45.299Z,86.87
2022-09-25T17:43:16.719Z,87.03
2022-09-25T17:45:49.788Z,87.05
2022-09-25T17:48:24.703Z,86.77
2022-09-25T17:50:54.524Z,87.24
2022-09-25T17:53:26.250Z,87.30
2022-09-25T17:55:55.271Z,87.14
2022-09-25T17:58:25.111Z,87.04
2022-09-25T18:00:54.929Z,87.22
2022-09-25T18:03:25.170Z,87.28
2022-09-25T18:05:54.196Z,86.99
2022-09-25T18:08:23.222Z,86.83
2022-09-25T18:10:55.386Z,86.74
2022-09-25T18:13:24.946Z,87.31
2022-09-25T18:15:57.846Z,87.04
2022-09-25T18:18:51.087Z,87.08
2022-09-25T18:21:30.213Z,87.08
2022-09-25T18:24:00.463Z,87.19
2022-09-25T18:26:31.473Z,87.43
2022-09-25T18:29:02.002Z,87.11
2022-09-25T18:31:32.148Z,87.43
2022-09-25T18:34:05.109Z,87.63
2022-09-25T18:36:37.553Z,87.57
2022-09-25T18:39:06.682Z,87.73
2022-09-25T18:41:37.983Z,87.61
2022-09-25T18:44:08.571Z,88.01
2022-09-25T18:46:38.413Z,88.45
2022-09-25T18:49:09.871Z,88.25
2022-09-25T18:51:40.353Z,88.50
2022-09-25T18:54:10.085Z,88.82
2022-09-25T18:56:41.191Z,88.89
2022-09-25T18:59:12.870Z,88.78
2022-09-25T19:01:42.259Z,89.18
2022-09-25T19:04:17.986Z,89.13
2022-09-25T19:06:48.312Z,89.10
2022-09-25T19:09:17.677Z,89.06
2022-09-25T19:11:47.346Z,89.28
2022-09-25T19:14:19.512Z,89.21
2022-09-25T19:16:48.587Z,89.61
2022-09-25T19:19:21.400Z,89.55
2022-09-25T19:21:50.159Z,89.53
2022-09-25T19:24:19.832Z,89.72
2022-09-25T19:26:49.594Z,90.02
2022-09-25T19:29:18.384Z,89.83
2022-09-25T19:31:49.002Z,90.00
2022-09-25T19:34:19.288Z,90.10
2022-09-25T19:36:48.065Z,89.72
2022-09-25T19:39:16.634Z,89.82
2022-09-25T19:41:45.388Z,89.89
2022-09-25T19:44:15.795Z,89.92
2022-09-25T19:46:44.999Z,89.87
2022-09-25T19:49:15.783Z,89.95
2022-09-25T19:51:46.037Z,90.18
2022-09-25T19:54:16.777Z,89.93
2022-09-25T19:56:46.623Z,90.14
2022-09-25T19:59:17.915Z,90.46
2022-09-25T20:01:47.068Z,90.38
2022-09-25T20:04:18.926Z,90.56
2022-09-25T20:06:50.175Z,89.89
2022-09-25T20:09:18.762Z,90.27
2022-09-25T20:11:47.882Z,90.35
2022-09-25T20:14:16.606Z,90.50
2022-09-25T20:16:45.182Z,90.68
2022-09-25T20:19:14.404Z,90.76
2022-09-25T20:21:43.131Z,90.54
2022-09-25T20:24:13.214Z,90.87
2022-09-25T20:26:41.828Z,90.82
2022-09-25T20:29:13.523Z,90.51
2022-09-25T20:31:44.675Z,90.59
2022-09-25T20:34:14.953Z,91.04
2022-09-25T20:36:44.492Z,90.71
2022-09-25T20:39:20.558Z,90.95
2022-09-25T20:41:50.112Z,90.73
2022-09-25T20:44:18.714Z,91.04
2022-09-25T20:46:47.268Z,90.67
2022-09-25T20:49:20.354Z,90.96
2022-09-25T20:51:49.078Z,90.92
2022-09-25T20:54:19.037Z,90.76
2022-09-25T20:56:47.595Z,91.03
2022-09-25T20:59:18.292Z,91.25
2022-09-25T21:01:47.173Z,91.03
2022-09-25T21:04:18.296Z,90.77
2022-09-25T21:06:47.215Z,90.82
2022-09-25T21:09:22.234Z,91.06
2022-09-25T21:11:51.666Z,91.13
2022-09-25T21:14:22.507Z,90.97
2022-09-25T21:16:52.284Z,91.12
2022-09-25T21:19:22.389Z,91.39
2022-09-25T21:21:51.479Z,91.24
2022-09-25T21:24:22.822Z,91.08
2022-09-25T21:26:51.775Z,91.68
2022-09-25T21:29:21.068Z,91.33
2022-09-25T21:31:51.008Z,91.33
2022-09-25T21:34:20.393Z,91.91
2022-09-25T21:36:50.044Z,91.43
2022-09-25T21:39:21.387Z,91.92
2022-09-25T21:41:50.924Z,91.69
2022-09-25T21:44:23.639Z,91.99
2022-09-25T21:46:52.466Z,91.54
2022-09-25T21:49:22.266Z,91.64
2022-09-25T21:51:52.577Z,91.67
2022-09-25T21:54:22.677Z,91.83
2022-09-25T21:56:51.239Z,91.66
2022-09-25T21:59:19.784Z,91.79
2022-09-25T22:01:48.808Z,91.33
2022-09-25T22:04:17.486Z,91.71
2022-09-25T22:06:48.530Z,91.84
2022-09-25T22:09:19.728Z,91.45
2022-09-25T22:11:51.330Z,91.76
2022-09-25T22:14:21.587Z,91.88
2022-09-25T22:16:52.790Z,91.64
2022-09-25T22:19:24.368Z,91.43
2022-09-25T22:21:54.996Z,91.95
2022-09-25T22:24:24.005Z,91.93
2022-09-25T22:26:55.539Z,91.88
2022-09-25T22:29:24.835Z,91.40
2022-09-25T22:31:53.619Z,91.72
2022-09-25T22:34:25.745Z,92.02
2022-09-25T22:36:59.481Z,92.05
2022-09-25T22:39:30.638Z,91.73
2022-09-25T22:42:00.784Z,91.75
2022-09-25T22:44:29.561Z,92.05
2022-09-25T22:47:02.417Z,91.81
2022-09-25T22:49:32.701Z,91.52
2022-09-25T22:52:02.199Z,91.64
2022-09-25T22:54:30.828Z,91.60
2022-09-25T22:57:00.788Z,91.83
2022-09-25T22:59:29.589Z,91.71
2022-09-25T23:01:58.127Z,91.83
2022-09-25T23:04:26.839Z,91.87
2022-09-25T23:06:55.521Z,91.38
2022-09-25T23:09:26.279Z,91.81
2022-09-25T23:11:55.534Z,91.70
2022-09-25T23:14:28.009Z,91.55
2022-09-25T23:16:57.202Z,91.38
2022-09-25T23:19:26.609Z,91.65
2022-09-25T23:21:56.614Z,91.91
2022-09-25T23:24:26.905Z,91.53
2022-09-25T23:26:55.547Z,92.03
2022-09-25T23:29:25.603Z,91.71
2022-09-25T23:31:54.388Z,92.13
2022-09-25T23:34:23.669Z,92.12
2022-09-25T23:36:52.287Z,91.80
2022-09-25T23:39:22.198Z,91.95
2022-09-25T23:41:50.816Z,92.27
2022-09-25T23:44:19.439Z,91.91
2022-09-25T23:46:49.448Z,91.98
2022-09-25T23:49:18.278Z,91.93
2022-09-25T23:51:48.442Z,92.21
2022-09-25T23:54:18.505Z,91.89
2022-09-25T23:56:47.527Z,91.94
2022-09-25T23:59:16.308Z,92.13
